sensor_id;sensor_type;location;lat;lon;timestamp;temperature;humidity
17421;DHT22;8828;48.800;9.540;2023-04-01T00:00:48;10.90;99.90
17421;DHT22;8828;48.800;9.540;2023-04-01T00:03:18;10.90;99.90
17421;DHT22;8828;48.800;9.540;2023-04-01T00:05:46;10.90;99.90
17421;DHT22;8828;48.800;9.540;2023-04-01T00:08:14;10.90;99.90
17421;DHT22;8828;48.800;9.540;2023-04-01T00:10:43;10.90;99.90
17421;DHT22;8828;48.800;9.540;2023-04-01T00:13:11;10.80;99.90
17421;DHT22;8828;48.800;9.540;2023-04-01T00:15:39;10.80;99.90
17421;DHT22;8828;48.800;9.540;2023-04-01T00:18:08;10.80;99.90
17421;DHT22;8828;48.800;9.540;2023-04-01T00:20:37;10.70;99.90
17421;DHT22;8828;48.800;9.540;2023-04-01T00:23:06;10.80;99.90
17421;DHT22;8828;48.800;9.540;2023-04-01T00:25:33;10.80;99.90
17421;DHT22;8828;48.800;9.540;2023-04-01T00:28:01;10.70;99.90
17421;DHT22;8828;48.800;9.540;2023-04-01T00:30:29;10.80;99.90
17421;DHT22;8828;48.800;9.540;2023-04-01T00:32:57;10.80;99.90
17421;DHT22;8828;48.800;9.540;2023-04-01T00:35:25;10.80;99.90
17421;DHT22;8828;48.800;9.540;2023-04-01T00:37:54;10.80;99.90
17421;DHT22;8828;48.800;9.540;2023-04-01T00:40:26;10.80;99.90
17421;DHT22;8828;48.800;9.540;2023-04-01T00:42:55;10.70;99.90
17421;DHT22;8828;48.800;9.540;2023-04-01T00:45:27;10.70;99.90
17421;DHT22;8828;48.800;9.540;2023-04-01T00:47:57;10.70;99.90
17421;DHT22;8828;48.800;9.540;2023-04-01T00:50:28;10.70;99.90
17421;DHT22;8828;48.800;9.540;2023-04-01T00:52:58;10.60;99.90
17421;DHT22;8828;48.800;9.540;2023-04-01T00:55:30;10.70;99.90
17421;DHT22;8828;48.800;9.540;2023-04-01T00:58:00;10.60;99.90
17421;DHT22;8828;48.800;9.540;2023-04-01T01:00:29;10.60;99.90
17421;DHT22;8828;48.800;9.540;2023-04-01T01:02:58;10.60;99.90
17421;DHT22;8828;48.800;9.540;2023-04-01T01:05:48;10.60;99.90
17421;DHT22;8828;48.800;9.540;2023-04-01T01:08:28;10.60;99.90
17421;DHT22;8828;48.800;9.540;2023-04-01T01:10:57;10.60;99.90
17421;DHT22;8828;48.800;9.540;2023-04-01T01:13:30;10.60;99.90
17421;DHT22;8828;48.800;9.540;2023-04-01T01:16:05;10.60;99.90
17421;DHT22;8828;48.800;9.540;2023-04-01T01:18:36;10.50;99.90
17421;DHT22;8828;48.800;9.540;2023-04-01T01:21:28;10.60;99.90
17421;DHT22;8828;48.800;9.540;2023-04-01T01:26:56;10.60;99.90
17421;DHT22;8828;48.800;9.540;2023-04-01T01:29:45;10.60;99.90
17421;DHT22;8828;48.800;9.540;2023-04-01T01:32:38;10.50;99.90
17421;DHT22;8828;48.800;9.540;2023-04-01T01:35:19;10.60;99.90
17421;DHT22;8828;48.800;9.540;2023-04-01T01:37:50;10.60;99.90
17421;DHT22;8828;48.800;9.540;2023-04-01T01:40:20;10.60;99.90
17421;DHT22;8828;48.800;9.540;2023-04-01T01:42:51;10.50;99.90
17421;DHT22;8828;48.800;9.540;2023-04-01T01:45:24;10.50;99.90
17421;DHT22;8828;48.800;9.540;2023-04-01T01:47:55;10.60;99.90
17421;DHT22;8828;48.800;9.540;2023-04-01T01:50:26;10.50;99.90
17421;DHT22;8828;48.800;9.540;2023-04-01T01:53:03;10.50;99.90
17421;DHT22;8828;48.800;9.540;2023-04-01T01:55:33;10.50;99.90
17421;DHT22;8828;48.800;9.540;2023-04-01T01:58:07;10.50;99.90
17421;DHT22;8828;48.800;9.540;2023-04-01T02:00:37;10.50;99.90
17421;DHT22;8828;48.800;9.540;2023-04-01T02:03:07;10.40;99.90
17421;DHT22;8828;48.800;9.540;2023-04-01T02:05:37;10.40;99.90
17421;DHT22;8828;48.800;9.540;2023-04-01T02:08:07;10.40;99.90
17421;DHT22;8828;48.800;9.540;2023-04-01T02:10:40;10.50;99.90
17421;DHT22;8828;48.800;9.540;2023-04-01T02:13:21;10.50;99.90
17421;DHT22;8828;48.800;9.540;2023-04-01T02:15:53;10.50;99.90
17421;DHT22;8828;48.800;9.540;2023-04-01T02:18:23;10.50;99.90
17421;DHT22;8828;48.800;9.540;2023-04-01T02:20:53;10.40;99.90
17421;DHT22;8828;48.800;9.540;2023-04-01T02:23:22;10.40;99.90
17421;DHT22;8828;48.800;9.540;2023-04-01T02:25:50;10.40;99.90
17421;DHT22;8828;48.800;9.540;2023-04-01T02:28:19;10.30;99.90
17421;DHT22;8828;48.800;9.540;2023-04-01T02:30:48;10.40;99.90
17421;DHT22;8828;48.800;9.540;2023-04-01T02:33:19;10.30;99.90
17421;DHT22;8828;48.800;9.540;2023-04-01T02:35:48;10.30;99.90
17421;DHT22;8828;48.800;9.540;2023-04-01T02:38:17;10.20;99.90
17421;DHT22;8828;48.800;9.540;2023-04-01T02:40:47;10.20;99.90
17421;DHT22;8828;48.800;9.540;2023-04-01T02:43:15;10.20;99.90
17421;DHT22;8828;48.800;9.540;2023-04-01T02:45:44;10.20;99.90
17421;DHT22;8828;48.800;9.540;2023-04-01T02:48:11;10.10;99.90
17421;DHT22;8828;48.800;9.540;2023-04-01T02:50:40;10.10;99.90
17421;DHT22;8828;48.800;9.540;2023-04-01T02:53:08;10.10;99.90
17421;DHT22;8828;48.800;9.540;2023-04-01T02:55:38;10.10;99.90
17421;DHT22;8828;48.800;9.540;2023-04-01T02:58:06;10.10;99.90
17421;DHT22;8828;48.800;9.540;2023-04-01T03:00:33;10.10;99.90
17421;DHT22;8828;48.800;9.540;2023-04-01T03:03:01;10.10;99.90
17421;DHT22;8828;48.800;9.540;2023-04-01T03:05:30;10.10;99.90
17421;DHT22;8828;48.800;9.540;2023-04-01T03:07:58;10.10;99.90
17421;DHT22;8828;48.800;9.540;2023-04-01T03:10:26;10.00;99.90
17421;DHT22;8828;48.800;9.540;2023-04-01T03:12:56;10.00;99.90
17421;DHT22;8828;48.800;9.540;2023-04-01T03:15:24;10.00;99.90
17421;DHT22;8828;48.800;9.540;2023-04-01T03:17:51;9.90;99.90
17421;DHT22;8828;48.800;9.540;2023-04-01T03:20:20;9.90;99.90
17421;DHT22;8828;48.800;9.540;2023-04-01T03:22:48;9.90;99.90
17421;DHT22;8828;48.800;9.540;2023-04-01T03:25:16;9.90;99.90
17421;DHT22;8828;48.800;9.540;2023-04-01T03:27:44;9.90;99.90
17421;DHT22;8828;48.800;9.540;2023-04-01T03:30:13;9.90;99.90
17421;DHT22;8828;48.800;9.540;2023-04-01T03:32:41;9.80;99.90
17421;DHT22;8828;48.800;9.540;2023-04-01T03:35:09;9.80;99.90
17421;DHT22;8828;48.800;9.540;2023-04-01T03:37:37;9.80;99.90
17421;DHT22;8828;48.800;9.540;2023-04-01T03:40:06;9.80;99.90
17421;DHT22;8828;48.800;9.540;2023-04-01T03:42:34;9.80;99.90
17421;DHT22;8828;48.800;9.540;2023-04-01T03:45:03;9.80;99.90
17421;DHT22;8828;48.800;9.540;2023-04-01T03:47:33;9.80;99.90
17421;DHT22;8828;48.800;9.540;2023-04-01T03:50:01;9.80;99.90
17421;DHT22;8828;48.800;9.540;2023-04-01T03:52:29;9.80;99.90
17421;DHT22;8828;48.800;9.540;2023-04-01T03:54:57;9.80;99.90
17421;DHT22;8828;48.800;9.540;2023-04-01T03:57:25;9.80;99.90
17421;DHT22;8828;48.800;9.540;2023-04-01T03:59:53;9.80;99.90
17421;DHT22;8828;48.800;9.540;2023-04-01T04:02:21;9.80;99.90
17421;DHT22;8828;48.800;9.540;2023-04-01T04:04:50;9.80;99.90
17421;DHT22;8828;48.800;9.540;2023-04-01T04:07:18;9.80;99.90
17421;DHT22;8828;48.800;9.540;2023-04-01T04:09:46;9.90;99.90
17421;DHT22;8828;48.800;9.540;2023-04-01T04:12:15;9.90;99.90
17421;DHT22;8828;48.800;9.540;2023-04-01T04:14:43;9.90;99.90
17421;DHT22;8828;48.800;9.540;2023-04-01T04:17:11;9.90;99.90
17421;DHT22;8828;48.800;9.540;2023-04-01T04:19:43;9.80;99.90
17421;DHT22;8828;48.800;9.540;2023-04-01T04:22:12;9.80;99.90
17421;DHT22;8828;48.800;9.540;2023-04-01T04:24:40;9.70;99.90
17421;DHT22;8828;48.800;9.540;2023-04-01T04:27:08;9.70;99.90
17421;DHT22;8828;48.800;9.540;2023-04-01T04:29:36;9.60;99.90
17421;DHT22;8828;48.800;9.540;2023-04-01T04:32:04;9.60;99.90
17421;DHT22;8828;48.800;9.540;2023-04-01T04:34:32;9.50;99.90
17421;DHT22;8828;48.800;9.540;2023-04-01T04:37:00;9.50;99.90
17421;DHT22;8828;48.800;9.540;2023-04-01T04:39:29;9.50;99.90
17421;DHT22;8828;48.800;9.540;2023-04-01T04:41:57;9.40;99.90
17421;DHT22;8828;48.800;9.540;2023-04-01T04:44:25;9.50;99.90
17421;DHT22;8828;48.800;9.540;2023-04-01T04:46:53;9.50;99.90
17421;DHT22;8828;48.800;9.540;2023-04-01T04:49:24;9.40;99.90
17421;DHT22;8828;48.800;9.540;2023-04-01T04:51:52;9.40;99.90
17421;DHT22;8828;48.800;9.540;2023-04-01T04:54:20;9.40;99.90
17421;DHT22;8828;48.800;9.540;2023-04-01T04:56:51;9.40;99.90
17421;DHT22;8828;48.800;9.540;2023-04-01T04:59:19;9.40;99.90
17421;DHT22;8828;48.800;9.540;2023-04-01T05:01:46;9.40;99.90
17421;DHT22;8828;48.800;9.540;2023-04-01T05:04:15;9.40;99.90
17421;DHT22;8828;48.800;9.540;2023-04-01T05:06:43;9.40;99.90
17421;DHT22;8828;48.800;9.540;2023-04-01T05:09:11;9.40;99.90
17421;DHT22;8828;48.800;9.540;2023-04-01T05:11:39;9.40;99.90
17421;DHT22;8828;48.800;9.540;2023-04-01T05:14:13;9.40;99.90
17421;DHT22;8828;48.800;9.540;2023-04-01T05:16:41;9.50;99.90
17421;DHT22;8828;48.800;9.540;2023-04-01T05:19:09;9.50;99.90
17421;DHT22;8828;48.800;9.540;2023-04-01T05:21:37;9.50;99.90
17421;DHT22;8828;48.800;9.540;2023-04-01T05:24:08;9.50;99.90
17421;DHT22;8828;48.800;9.540;2023-04-01T05:26:36;9.50;99.90
17421;DHT22;8828;48.800;9.540;2023-04-01T05:29:05;9.50;99.90
17421;DHT22;8828;48.800;9.540;2023-04-01T05:31:34;9.50;99.90
17421;DHT22;8828;48.800;9.540;2023-04-01T05:34:02;9.50;99.90
17421;DHT22;8828;48.800;9.540;2023-04-01T05:36:30;9.60;99.90
17421;DHT22;8828;48.800;9.540;2023-04-01T05:38:58;9.60;99.90
17421;DHT22;8828;48.800;9.540;2023-04-01T05:41:26;9.60;99.90
17421;DHT22;8828;48.800;9.540;2023-04-01T05:43:54;9.60;99.90
17421;DHT22;8828;48.800;9.540;2023-04-01T05:46:22;9.60;99.90
17421;DHT22;8828;48.800;9.540;2023-04-01T05:48:51;9.60;99.90
17421;DHT22;8828;48.800;9.540;2023-04-01T05:51:19;9.60;99.90
17421;DHT22;8828;48.800;9.540;2023-04-01T05:53:47;9.70;99.90
17421;DHT22;8828;48.800;9.540;2023-04-01T05:56:15;9.70;99.90
17421;DHT22;8828;48.800;9.540;2023-04-01T05:58:46;9.70;99.90
17421;DHT22;8828;48.800;9.540;2023-04-01T06:01:17;9.70;99.90
17421;DHT22;8828;48.800;9.540;2023-04-01T06:03:45;9.70;99.90
17421;DHT22;8828;48.800;9.540;2023-04-01T06:06:20;9.80;99.90
17421;DHT22;8828;48.800;9.540;2023-04-01T06:08:51;9.80;99.90
17421;DHT22;8828;48.800;9.540;2023-04-01T06:11:26;9.80;99.90
17421;DHT22;8828;48.800;9.540;2023-04-01T06:14:10;9.80;99.90
17421;DHT22;8828;48.800;9.540;2023-04-01T06:16:48;9.90;99.90
17421;DHT22;8828;48.800;9.540;2023-04-01T06:19:30;9.90;99.90
17421;DHT22;8828;48.800;9.540;2023-04-01T06:22:33;10.00;99.90
17421;DHT22;8828;48.800;9.540;2023-04-01T06:25:38;10.00;99.90
17421;DHT22;8828;48.800;9.540;2023-04-01T06:28:30;10.00;99.90
17421;DHT22;8828;48.800;9.540;2023-04-01T06:31:10;10.10;99.90
17421;DHT22;8828;48.800;9.540;2023-04-01T06:33:57;10.10;99.90
17421;DHT22;8828;48.800;9.540;2023-04-01T06:36:42;10.20;99.90
17421;DHT22;8828;48.800;9.540;2023-04-01T06:39:25;10.20;99.90
17421;DHT22;8828;48.800;9.540;2023-04-01T06:42:15;10.30;99.90
17421;DHT22;8828;48.800;9.540;2023-04-01T06:44:55;10.40;99.90
17421;DHT22;8828;48.800;9.540;2023-04-01T06:47:40;10.60;99.90
17421;DHT22;8828;48.800;9.540;2023-04-01T06:50:18;10.70;99.90
17421;DHT22;8828;48.800;9.540;2023-04-01T06:52:52;10.80;99.90
17421;DHT22;8828;48.800;9.540;2023-04-01T06:55:27;10.90;99.90
17421;DHT22;8828;48.800;9.540;2023-04-01T06:58:01;11.00;99.90
17421;DHT22;8828;48.800;9.540;2023-04-01T07:00:32;11.00;99.90
17421;DHT22;8828;48.800;9.540;2023-04-01T07:03:06;11.10;99.90
17421;DHT22;8828;48.800;9.540;2023-04-01T07:05:39;11.10;99.90
17421;DHT22;8828;48.800;9.540;2023-04-01T07:08:11;11.10;99.90
17421;DHT22;8828;48.800;9.540;2023-04-01T07:10:45;11.10;99.90
17421;DHT22;8828;48.800;9.540;2023-04-01T07:13:20;11.00;99.90
17421;DHT22;8828;48.800;9.540;2023-04-01T07:15:58;11.00;99.90
17421;DHT22;8828;48.800;9.540;2023-04-01T07:18:32;11.00;99.90
17421;DHT22;8828;48.800;9.540;2023-04-01T07:21:04;11.00;99.90
17421;DHT22;8828;48.800;9.540;2023-04-01T07:23:42;10.90;99.90
17421;DHT22;8828;48.800;9.540;2023-04-01T07:26:19;10.90;99.90
17421;DHT22;8828;48.800;9.540;2023-04-01T07:28:48;10.80;99.90
17421;DHT22;8828;48.800;9.540;2023-04-01T07:31:32;10.80;99.90
17421;DHT22;8828;48.800;9.540;2023-04-01T07:34:06;10.70;99.90
17421;DHT22;8828;48.800;9.540;2023-04-01T07:36:40;10.80;99.90
17421;DHT22;8828;48.800;9.540;2023-04-01T07:39:21;10.80;99.90
17421;DHT22;8828;48.800;9.540;2023-04-01T07:42:01;10.80;99.90
17421;DHT22;8828;48.800;9.540;2023-04-01T07:44:39;10.90;99.90
17421;DHT22;8828;48.800;9.540;2023-04-01T07:47:19;11.00;99.90
17421;DHT22;8828;48.800;9.540;2023-04-01T07:49:59;11.10;99.90
17421;DHT22;8828;48.800;9.540;2023-04-01T07:52:35;11.10;99.90
17421;DHT22;8828;48.800;9.540;2023-04-01T07:55:10;11.10;99.90
17421;DHT22;8828;48.800;9.540;2023-04-01T07:57:49;11.20;99.90
17421;DHT22;8828;48.800;9.540;2023-04-01T08:00:22;11.20;99.90
17421;DHT22;8828;48.800;9.540;2023-04-01T08:03:03;11.10;99.90
17421;DHT22;8828;48.800;9.540;2023-04-01T08:05:41;11.10;99.90
17421;DHT22;8828;48.800;9.540;2023-04-01T08:08:18;11.10;99.90
17421;DHT22;8828;48.800;9.540;2023-04-01T08:10:51;11.20;99.90
17421;DHT22;8828;48.800;9.540;2023-04-01T08:13:30;11.20;99.90
17421;DHT22;8828;48.800;9.540;2023-04-01T08:16:10;11.20;99.90
17421;DHT22;8828;48.800;9.540;2023-04-01T08:18:46;11.20;99.90
17421;DHT22;8828;48.800;9.540;2023-04-01T08:21:21;11.20;99.90
17421;DHT22;8828;48.800;9.540;2023-04-01T08:23:51;11.20;99.90
17421;DHT22;8828;48.800;9.540;2023-04-01T08:26:28;11.20;99.90
17421;DHT22;8828;48.800;9.540;2023-04-01T08:29:03;11.20;99.90
17421;DHT22;8828;48.800;9.540;2023-04-01T08:31:37;11.20;99.90
17421;DHT22;8828;48.800;9.540;2023-04-01T08:34:13;11.20;99.90
17421;DHT22;8828;48.800;9.540;2023-04-01T08:36:46;11.20;99.90
17421;DHT22;8828;48.800;9.540;2023-04-01T08:39:21;11.20;99.90
17421;DHT22;8828;48.800;9.540;2023-04-01T08:51:57;11.30;99.90
17421;DHT22;8828;48.800;9.540;2023-04-01T08:54:44;11.30;99.90
17421;DHT22;8828;48.800;9.540;2023-04-01T08:57:20;11.30;99.90
17421;DHT22;8828;48.800;9.540;2023-04-01T09:00:08;11.30;99.90
17421;DHT22;8828;48.800;9.540;2023-04-01T09:02:58;11.30;99.90
17421;DHT22;8828;48.800;9.540;2023-04-01T09:05:46;11.40;99.90
17421;DHT22;8828;48.800;9.540;2023-04-01T09:08:31;11.40;99.90
17421;DHT22;8828;48.800;9.540;2023-04-01T09:11:12;11.40;99.90
17421;DHT22;8828;48.800;9.540;2023-04-01T09:17:12;11.40;99.90
17421;DHT22;8828;48.800;9.540;2023-04-01T09:20:15;11.40;99.90
17421;DHT22;8828;48.800;9.540;2023-04-01T09:22:50;11.40;99.90
17421;DHT22;8828;48.800;9.540;2023-04-01T09:25:54;11.40;99.90
17421;DHT22;8828;48.800;9.540;2023-04-01T09:28:28;11.40;99.90
17421;DHT22;8828;48.800;9.540;2023-04-01T09:31:14;11.30;99.90
17421;DHT22;8828;48.800;9.540;2023-04-01T09:34:07;11.30;99.90
17421;DHT22;8828;48.800;9.540;2023-04-01T09:36:43;11.30;99.90
17421;DHT22;8828;48.800;9.540;2023-04-01T09:39:34;11.30;99.90
17421;DHT22;8828;48.800;9.540;2023-04-01T09:42:21;11.30;99.90
17421;DHT22;8828;48.800;9.540;2023-04-01T09:44:58;11.30;99.90
17421;DHT22;8828;48.800;9.540;2023-04-01T09:47:43;11.30;99.90
17421;DHT22;8828;48.800;9.540;2023-04-01T09:50:26;11.40;99.90
17421;DHT22;8828;48.800;9.540;2023-04-01T09:53:04;11.40;99.90
17421;DHT22;8828;48.800;9.540;2023-04-01T09:55:57;11.40;99.90
17421;DHT22;8828;48.800;9.540;2023-04-01T09:58:47;11.40;99.90
17421;DHT22;8828;48.800;9.540;2023-04-01T10:01:42;11.40;99.90
17421;DHT22;8828;48.800;9.540;2023-04-01T10:04:45;11.50;99.90
17421;DHT22;8828;48.800;9.540;2023-04-01T10:10:51;11.50;99.90
17421;DHT22;8828;48.800;9.540;2023-04-01T10:17:10;11.60;99.90
17421;DHT22;8828;48.800;9.540;2023-04-01T10:20:19;11.60;99.90
17421;DHT22;8828;48.800;9.540;2023-04-01T10:23:06;11.60;99.90
17421;DHT22;8828;48.800;9.540;2023-04-01T10:25:57;11.60;99.90
17421;DHT22;8828;48.800;9.540;2023-04-01T10:29:01;11.60;99.90
17421;DHT22;8828;48.800;9.540;2023-04-01T10:37:43;11.70;99.90
17421;DHT22;8828;48.800;9.540;2023-04-01T10:40:38;11.80;99.90
17421;DHT22;8828;48.800;9.540;2023-04-01T10:53:01;11.90;99.90
17421;DHT22;8828;48.800;9.540;2023-04-01T10:55:48;11.90;99.90
17421;DHT22;8828;48.800;9.540;2023-04-01T10:59:00;11.90;99.90
17421;DHT22;8828;48.800;9.540;2023-04-01T11:01:59;11.90;99.90
17421;DHT22;8828;48.800;9.540;2023-04-01T11:05:20;11.90;99.90
17421;DHT22;8828;48.800;9.540;2023-04-01T11:11:25;11.80;99.90
17421;DHT22;8828;48.800;9.540;2023-04-01T11:17:27;11.50;99.90
17421;DHT22;8828;48.800;9.540;2023-04-01T11:20:37;11.50;99.90
17421;DHT22;8828;48.800;9.540;2023-04-01T11:23:28;11.40;99.90
17421;DHT22;8828;48.800;9.540;2023-04-01T11:26:15;11.40;99.90
17421;DHT22;8828;48.800;9.540;2023-04-01T11:29:07;11.40;99.90
17421;DHT22;8828;48.800;9.540;2023-04-01T11:31:45;11.50;99.90
17421;DHT22;8828;48.800;9.540;2023-04-01T11:34:27;11.50;99.90
17421;DHT22;8828;48.800;9.540;2023-04-01T11:37:05;11.50;99.90
17421;DHT22;8828;48.800;9.540;2023-04-01T11:39:43;11.60;99.90
17421;DHT22;8828;48.800;9.540;2023-04-01T11:42:23;11.60;99.90
17421;DHT22;8828;48.800;9.540;2023-04-01T11:45:10;11.70;99.90
17421;DHT22;8828;48.800;9.540;2023-04-01T11:47:52;11.70;99.90
17421;DHT22;8828;48.800;9.540;2023-04-01T11:50:30;11.70;99.90
17421;DHT22;8828;48.800;9.540;2023-04-01T11:53:15;11.70;99.90
17421;DHT22;8828;48.800;9.540;2023-04-01T11:59:23;11.60;99.90
17421;DHT22;8828;48.800;9.540;2023-04-01T12:02:05;11.70;99.90
17421;DHT22;8828;48.800;9.540;2023-04-01T12:04:47;11.70;99.90
17421;DHT22;8828;48.800;9.540;2023-04-01T12:07:40;11.70;99.90
17421;DHT22;8828;48.800;9.540;2023-04-01T12:10:18;11.80;99.90
17421;DHT22;8828;48.800;9.540;2023-04-01T12:12:57;11.90;99.90
17421;DHT22;8828;48.800;9.540;2023-04-01T12:15:34;11.90;99.90
17421;DHT22;8828;48.800;9.540;2023-04-01T12:18:13;11.90;99.90
17421;DHT22;8828;48.800;9.540;2023-04-01T12:20:49;12.00;99.90
17421;DHT22;8828;48.800;9.540;2023-04-01T12:23:45;12.00;99.90
17421;DHT22;8828;48.800;9.540;2023-04-01T12:26:30;12.10;99.90
17421;DHT22;8828;48.800;9.540;2023-04-01T12:29:09;12.20;99.90
17421;DHT22;8828;48.800;9.540;2023-04-01T12:31:47;12.30;99.90
17421;DHT22;8828;48.800;9.540;2023-04-01T12:34:35;12.30;99.90
17421;DHT22;8828;48.800;9.540;2023-04-01T12:37:12;12.30;99.90
17421;DHT22;8828;48.800;9.540;2023-04-01T12:39:59;12.30;99.90
17421;DHT22;8828;48.800;9.540;2023-04-01T12:42:41;12.20;99.90
17421;DHT22;8828;48.800;9.540;2023-04-01T12:45:28;12.10;99.90
17421;DHT22;8828;48.800;9.540;2023-04-01T12:48:57;12.10;99.90
17421;DHT22;8828;48.800;9.540;2023-04-01T12:51:57;12.10;99.90
17421;DHT22;8828;48.800;9.540;2023-04-01T13:00:56;12.10;99.90
17421;DHT22;8828;48.800;9.540;2023-04-01T13:03:49;12.10;99.90
17421;DHT22;8828;48.800;9.540;2023-04-01T13:06:27;12.10;99.90
17421;DHT22;8828;48.800;9.540;2023-04-01T13:09:05;12.10;99.90
17421;DHT22;8828;48.800;9.540;2023-04-01T13:11:41;12.00;99.90
17421;DHT22;8828;48.800;9.540;2023-04-01T13:14:32;12.10;99.90
17421;DHT22;8828;48.800;9.540;2023-04-01T13:17:10;12.10;99.90
17421;DHT22;8828;48.800;9.540;2023-04-01T13:19:47;12.20;99.90
17421;DHT22;8828;48.800;9.540;2023-04-01T13:22:39;12.10;99.90
17421;DHT22;8828;48.800;9.540;2023-04-01T13:25:20;12.00;99.90
17421;DHT22;8828;48.800;9.540;2023-04-01T13:27:56;12.00;99.90
17421;DHT22;8828;48.800;9.540;2023-04-01T13:30:32;12.00;99.90
17421;DHT22;8828;48.800;9.540;2023-04-01T13:33:06;12.00;99.90
17421;DHT22;8828;48.800;9.540;2023-04-01T13:35:45;12.00;99.90
17421;DHT22;8828;48.800;9.540;2023-04-01T13:38:46;12.00;99.90
17421;DHT22;8828;48.800;9.540;2023-04-01T13:41:22;12.00;99.90
17421;DHT22;8828;48.800;9.540;2023-04-01T13:43:58;11.90;99.90
17421;DHT22;8828;48.800;9.540;2023-04-01T13:47:01;11.90;99.90
17421;DHT22;8828;48.800;9.540;2023-04-01T13:49:47;11.90;99.90
17421;DHT22;8828;48.800;9.540;2023-04-01T13:55:49;11.90;99.90
17421;DHT22;8828;48.800;9.540;2023-04-01T13:58:35;11.90;99.90
17421;DHT22;8828;48.800;9.540;2023-04-01T14:01:10;11.90;99.90
17421;DHT22;8828;48.800;9.540;2023-04-01T14:03:51;12.00;99.90
17421;DHT22;8828;48.800;9.540;2023-04-01T14:06:28;12.00;99.90
17421;DHT22;8828;48.800;9.540;2023-04-01T14:09:16;12.00;99.90
17421;DHT22;8828;48.800;9.540;2023-04-01T14:11:53;12.00;99.90
17421;DHT22;8828;48.800;9.540;2023-04-01T14:14:33;12.00;99.90
17421;DHT22;8828;48.800;9.540;2023-04-01T14:17:14;12.00;99.90
17421;DHT22;8828;48.800;9.540;2023-04-01T14:19:58;12.00;99.90
17421;DHT22;8828;48.800;9.540;2023-04-01T14:22:37;12.00;99.90
17421;DHT22;8828;48.800;9.540;2023-04-01T14:25:30;12.00;99.90
17421;DHT22;8828;48.800;9.540;2023-04-01T14:28:09;12.10;99.90
17421;DHT22;8828;48.800;9.540;2023-04-01T14:30:54;12.10;99.90
17421;DHT22;8828;48.800;9.540;2023-04-01T14:33:33;12.00;99.90
17421;DHT22;8828;48.800;9.540;2023-04-01T14:36:33;12.00;99.90
17421;DHT22;8828;48.800;9.540;2023-04-01T14:39:15;11.90;99.90
17421;DHT22;8828;48.800;9.540;2023-04-01T14:41:51;11.90;99.90
17421;DHT22;8828;48.800;9.540;2023-04-01T14:44:48;11.90;99.90
17421;DHT22;8828;48.800;9.540;2023-04-01T14:47:42;11.90;99.90
17421;DHT22;8828;48.800;9.540;2023-04-01T14:50:14;11.90;99.90
17421;DHT22;8828;48.800;9.540;2023-04-01T14:52:50;11.90;99.90
17421;DHT22;8828;48.800;9.540;2023-04-01T14:55:32;11.90;99.90
17421;DHT22;8828;48.800;9.540;2023-04-01T14:58:11;11.90;99.90
17421;DHT22;8828;48.800;9.540;2023-04-01T15:00:48;11.90;99.90
17421;DHT22;8828;48.800;9.540;2023-04-01T15:03:22;11.80;99.90
17421;DHT22;8828;48.800;9.540;2023-04-01T15:06:10;11.80;99.90
17421;DHT22;8828;48.800;9.540;2023-04-01T15:08:51;11.70;99.90
17421;DHT22;8828;48.800;9.540;2023-04-01T15:11:34;11.80;99.90
17421;DHT22;8828;48.800;9.540;2023-04-01T15:17:17;11.70;99.90
17421;DHT22;8828;48.800;9.540;2023-04-01T15:20:02;11.70;99.90
17421;DHT22;8828;48.800;9.540;2023-04-01T15:22:42;11.70;99.90
17421;DHT22;8828;48.800;9.540;2023-04-01T15:25:28;11.70;99.90
17421;DHT22;8828;48.800;9.540;2023-04-01T15:28:04;11.70;99.90
17421;DHT22;8828;48.800;9.540;2023-04-01T15:30:38;11.70;99.90
17421;DHT22;8828;48.800;9.540;2023-04-01T15:36:20;11.70;99.90
17421;DHT22;8828;48.800;9.540;2023-04-01T15:38:56;11.70;99.90
17421;DHT22;8828;48.800;9.540;2023-04-01T15:41:37;11.70;99.90
17421;DHT22;8828;48.800;9.540;2023-04-01T15:44:32;11.60;99.90
17421;DHT22;8828;48.800;9.540;2023-04-01T15:47:30;11.50;99.90
17421;DHT22;8828;48.800;9.540;2023-04-01T15:53:23;11.50;99.90
17421;DHT22;8828;48.800;9.540;2023-04-01T15:55:57;11.40;99.90
17421;DHT22;8828;48.800;9.540;2023-04-01T15:58:42;11.40;99.90
17421;DHT22;8828;48.800;9.540;2023-04-01T16:01:20;11.40;99.90
17421;DHT22;8828;48.800;9.540;2023-04-01T16:03:55;11.40;99.90
17421;DHT22;8828;48.800;9.540;2023-04-01T16:06:43;11.40;99.90
17421;DHT22;8828;48.800;9.540;2023-04-01T16:09:27;11.40;99.90
17421;DHT22;8828;48.800;9.540;2023-04-01T16:12:04;11.40;99.90
17421;DHT22;8828;48.800;9.540;2023-04-01T16:14:44;11.40;99.90
17421;DHT22;8828;48.800;9.540;2023-04-01T16:17:26;11.30;99.90
17421;DHT22;8828;48.800;9.540;2023-04-01T16:19:59;11.30;99.90
17421;DHT22;8828;48.800;9.540;2023-04-01T16:22:34;11.30;99.90
17421;DHT22;8828;48.800;9.540;2023-04-01T16:25:19;11.40;99.90
17421;DHT22;8828;48.800;9.540;2023-04-01T16:27:53;11.40;99.90
17421;DHT22;8828;48.800;9.540;2023-04-01T16:30:33;11.30;99.90
17421;DHT22;8828;48.800;9.540;2023-04-01T16:33:04;11.40;99.90
17421;DHT22;8828;48.800;9.540;2023-04-01T16:35:42;11.40;99.90
17421;DHT22;8828;48.800;9.540;2023-04-01T16:38:18;11.30;99.90
17421;DHT22;8828;48.800;9.540;2023-04-01T16:40:57;11.40;99.90
17421;DHT22;8828;48.800;9.540;2023-04-01T16:43:29;11.30;99.90
17421;DHT22;8828;48.800;9.540;2023-04-01T16:46:18;11.30;99.90
17421;DHT22;8828;48.800;9.540;2023-04-01T16:49:04;11.30;99.90
17421;DHT22;8828;48.800;9.540;2023-04-01T16:51:45;11.30;99.90
17421;DHT22;8828;48.800;9.540;2023-04-01T16:54:19;11.30;99.90
17421;DHT22;8828;48.800;9.540;2023-04-01T16:56:55;11.30;99.90
17421;DHT22;8828;48.800;9.540;2023-04-01T16:59:27;11.30;99.90
17421;DHT22;8828;48.800;9.540;2023-04-01T17:02:07;11.30;99.90
17421;DHT22;8828;48.800;9.540;2023-04-01T17:04:40;11.30;99.90
17421;DHT22;8828;48.800;9.540;2023-04-01T17:07:22;11.30;99.90
17421;DHT22;8828;48.800;9.540;2023-04-01T17:10:06;11.30;99.90
17421;DHT22;8828;48.800;9.540;2023-04-01T17:12:43;11.30;99.90
17421;DHT22;8828;48.800;9.540;2023-04-01T17:15:21;11.30;99.90
17421;DHT22;8828;48.800;9.540;2023-04-01T17:17:59;11.20;99.90
17421;DHT22;8828;48.800;9.540;2023-04-01T17:20:35;11.20;99.90
17421;DHT22;8828;48.800;9.540;2023-04-01T17:23:13;11.20;99.90
17421;DHT22;8828;48.800;9.540;2023-04-01T17:25:54;11.20;99.90
17421;DHT22;8828;48.800;9.540;2023-04-01T17:28:33;11.20;99.90
17421;DHT22;8828;48.800;9.540;2023-04-01T17:31:10;11.20;99.90
17421;DHT22;8828;48.800;9.540;2023-04-01T17:34:09;11.20;99.90
17421;DHT22;8828;48.800;9.540;2023-04-01T17:36:58;11.20;99.90
17421;DHT22;8828;48.800;9.540;2023-04-01T17:39:40;11.20;99.90
17421;DHT22;8828;48.800;9.540;2023-04-01T17:42:15;11.10;99.90
17421;DHT22;8828;48.800;9.540;2023-04-01T17:44:49;11.10;99.90
17421;DHT22;8828;48.800;9.540;2023-04-01T17:47:36;11.00;99.90
17421;DHT22;8828;48.800;9.540;2023-04-01T17:50:19;11.10;99.90
17421;DHT22;8828;48.800;9.540;2023-04-01T17:52:55;11.10;99.90
17421;DHT22;8828;48.800;9.540;2023-04-01T17:55:44;11.10;99.90
17421;DHT22;8828;48.800;9.540;2023-04-01T17:58:18;11.00;99.90
17421;DHT22;8828;48.800;9.540;2023-04-01T18:00:54;11.00;99.90
17421;DHT22;8828;48.800;9.540;2023-04-01T18:03:50;11.00;99.90